sensor_id;sensor_type;location;lat;lon;timestamp;P1;durP1;ratioP1;P2;durP2;ratioP2
74749;SDS011;63269;53.330;-6.288;2023-04-15T00:01:03;6.18;;;3.03;;
74749;SDS011;63269;53.330;-6.288;2023-04-15T00:03:29;4.68;;;2.30;;
74749;SDS011;63269;53.330;-6.288;2023-04-15T00:05:56;4.60;;;2.47;;
74749;SDS011;63269;53.330;-6.288;2023-04-15T00:08:22;5.03;;;2.30;;
74749;SDS011;63269;53.330;-6.288;2023-04-15T00:10:47;4.20;;;2.25;;
74749;SDS011;63269;53.330;-6.288;2023-04-15T00:13:13;5.28;;;2.97;;
74749;SDS011;63269;53.330;-6.288;2023-04-15T00:15:39;3.53;;;1.63;;
74749;SDS011;63269;53.330;-6.288;2023-04-15T00:18:05;6.45;;;2.10;;
74749;SDS011;63269;53.330;-6.288;2023-04-15T00:20:32;5.38;;;2.63;;
74749;SDS011;63269;53.330;-6.288;2023-04-15T00:22:58;3.92;;;2.00;;
74749;SDS011;63269;53.330;-6.288;2023-04-15T00:25:24;3.80;;;2.05;;
74749;SDS011;63269;53.330;-6.288;2023-04-15T00:27:50;3.95;;;2.03;;
74749;SDS011;63269;53.330;-6.288;2023-04-15T00:30:15;5.65;;;2.50;;
74749;SDS011;63269;53.330;-6.288;2023-04-15T00:32:41;3.50;;;2.05;;
74749;SDS011;63269;53.330;-6.288;2023-04-15T00:35:07;4.57;;;2.15;;
74749;SDS011;63269;53.330;-6.288;2023-04-15T00:37:33;4.32;;;1.98;;
74749;SDS011;63269;53.330;-6.288;2023-04-15T00:39:59;4.15;;;2.00;;
74749;SDS011;63269;53.330;-6.288;2023-04-15T00:42:25;4.85;;;2.00;;
74749;SDS011;63269;53.330;-6.288;2023-04-15T00:44:51;5.80;;;1.95;;
74749;SDS011;63269;53.330;-6.288;2023-04-15T00:47:17;4.25;;;1.98;;
74749;SDS011;63269;53.330;-6.288;2023-04-15T00:49:43;3.75;;;1.85;;
74749;SDS011;63269;53.330;-6.288;2023-04-15T00:52:09;3.78;;;1.83;;
74749;SDS011;63269;53.330;-6.288;2023-04-15T00:54:34;4.57;;;1.75;;
74749;SDS011;63269;53.330;-6.288;2023-04-15T00:57:00;2.53;;;1.50;;
74749;SDS011;63269;53.330;-6.288;2023-04-15T00:59:26;3.40;;;1.70;;
74749;SDS011;63269;53.330;-6.288;2023-04-15T01:01:51;4.03;;;1.70;;
74749;SDS011;63269;53.330;-6.288;2023-04-15T01:04:17;4.60;;;2.03;;
74749;SDS011;63269;53.330;-6.288;2023-04-15T01:06:42;3.08;;;1.50;;
74749;SDS011;63269;53.330;-6.288;2023-04-15T01:09:08;6.03;;;1.90;;
74749;SDS011;63269;53.330;-6.288;2023-04-15T01:11:33;4.57;;;2.17;;
74749;SDS011;63269;53.330;-6.288;2023-04-15T01:13:59;6.03;;;1.77;;
74749;SDS011;63269;53.330;-6.288;2023-04-15T01:16:25;4.18;;;2.03;;
74749;SDS011;63269;53.330;-6.288;2023-04-15T01:18:52;4.28;;;1.83;;
74749;SDS011;63269;53.330;-6.288;2023-04-15T01:21:18;4.22;;;1.85;;
74749;SDS011;63269;53.330;-6.288;2023-04-15T01:23:44;4.60;;;2.92;;
74749;SDS011;63269;53.330;-6.288;2023-04-15T01:26:11;5.28;;;1.80;;
74749;SDS011;63269;53.330;-6.288;2023-04-15T01:28:37;4.85;;;1.80;;
74749;SDS011;63269;53.330;-6.288;2023-04-15T01:31:10;4.65;;;1.77;;
74749;SDS011;63269;53.330;-6.288;2023-04-15T01:33:38;3.45;;;1.70;;
74749;SDS011;63269;53.330;-6.288;2023-04-15T01:36:05;5.03;;;1.90;;
74749;SDS011;63269;53.330;-6.288;2023-04-15T01:38:32;3.20;;;1.70;;
74749;SDS011;63269;53.330;-6.288;2023-04-15T01:40:58;3.60;;;1.80;;
74749;SDS011;63269;53.330;-6.288;2023-04-15T01:43:24;4.90;;;1.92;;
74749;SDS011;63269;53.330;-6.288;2023-04-15T01:45:50;6.43;;;1.80;;
74749;SDS011;63269;53.330;-6.288;2023-04-15T01:48:15;5.13;;;2.10;;
74749;SDS011;63269;53.330;-6.288;2023-04-15T01:50:41;4.40;;;2.00;;
74749;SDS011;63269;53.330;-6.288;2023-04-15T01:53:07;5.13;;;1.65;;
74749;SDS011;63269;53.330;-6.288;2023-04-15T01:55:33;4.90;;;2.70;;
74749;SDS011;63269;53.330;-6.288;2023-04-15T01:57:59;4.57;;;1.85;;
74749;SDS011;63269;53.330;-6.288;2023-04-15T02:00:25;2.53;;;1.58;;
74749;SDS011;63269;53.330;-6.288;2023-04-15T02:02:51;3.83;;;1.88;;
74749;SDS011;63269;53.330;-6.288;2023-04-15T02:05:17;4.18;;;1.75;;
74749;SDS011;63269;53.330;-6.288;2023-04-15T02:07:42;4.68;;;1.92;;
74749;SDS011;63269;53.330;-6.288;2023-04-15T02:10:08;4.90;;;1.90;;
74749;SDS011;63269;53.330;-6.288;2023-04-15T02:12:34;5.65;;;2.20;;
74749;SDS011;63269;53.330;-6.288;2023-04-15T02:15:00;3.05;;;1.52;;
74749;SDS011;63269;53.330;-6.288;2023-04-15T02:17:26;4.90;;;2.08;;
74749;SDS011;63269;53.330;-6.288;2023-04-15T02:19:51;3.80;;;1.85;;
74749;SDS011;63269;53.330;-6.288;2023-04-15T02:22:16;5.22;;;2.58;;
74749;SDS011;63269;53.330;-6.288;2023-04-15T02:24:42;5.05;;;1.73;;
74749;SDS011;63269;53.330;-6.288;2023-04-15T02:27:08;2.95;;;1.60;;
74749;SDS011;63269;53.330;-6.288;2023-04-15T02:29:34;4.03;;;1.85;;
74749;SDS011;63269;53.330;-6.288;2023-04-15T02:31:59;5.65;;;1.70;;
74749;SDS011;63269;53.330;-6.288;2023-04-15T02:34:25;6.78;;;1.77;;
74749;SDS011;63269;53.330;-6.288;2023-04-15T02:36:51;3.45;;;1.85;;
74749;SDS011;63269;53.330;-6.288;2023-04-15T02:39:21;4.45;;;1.70;;
74749;SDS011;63269;53.330;-6.288;2023-04-15T02:41:46;3.17;;;1.63;;
74749;SDS011;63269;53.330;-6.288;2023-04-15T02:44:15;3.47;;;1.75;;
74749;SDS011;63269;53.330;-6.288;2023-04-15T02:46:44;3.97;;;1.55;;
74749;SDS011;63269;53.330;-6.288;2023-04-15T02:49:12;5.07;;;1.90;;
74749;SDS011;63269;53.330;-6.288;2023-04-15T02:51:38;5.18;;;2.15;;
74749;SDS011;63269;53.330;-6.288;2023-04-15T02:54:03;4.50;;;2.10;;
74749;SDS011;63269;53.330;-6.288;2023-04-15T02:56:29;3.53;;;1.30;;
74749;SDS011;63269;53.330;-6.288;2023-04-15T02:58:54;2.58;;;1.50;;
74749;SDS011;63269;53.330;-6.288;2023-04-15T03:01:20;4.10;;;1.70;;
74749;SDS011;63269;53.330;-6.288;2023-04-15T03:03:46;3.75;;;1.73;;
74749;SDS011;63269;53.330;-6.288;2023-04-15T03:06:11;3.15;;;1.45;;
74749;SDS011;63269;53.330;-6.288;2023-04-15T03:08:37;4.57;;;1.85;;
74749;SDS011;63269;53.330;-6.288;2023-04-15T03:11:02;3.83;;;2.10;;
74749;SDS011;63269;53.330;-6.288;2023-04-15T03:13:28;3.58;;;1.60;;
74749;SDS011;63269;53.330;-6.288;2023-04-15T03:15:53;5.32;;;2.08;;
74749;SDS011;63269;53.330;-6.288;2023-04-15T03:18:19;4.57;;;1.80;;
74749;SDS011;63269;53.330;-6.288;2023-04-15T03:20:44;3.45;;;1.50;;
74749;SDS011;63269;53.330;-6.288;2023-04-15T03:23:10;4.13;;;1.63;;
74749;SDS011;63269;53.330;-6.288;2023-04-15T03:25:35;4.50;;;1.50;;
74749;SDS011;63269;53.330;-6.288;2023-04-15T03:28:01;3.63;;;1.60;;
74749;SDS011;63269;53.330;-6.288;2023-04-15T03:30:27;5.93;;;1.85;;
74749;SDS011;63269;53.330;-6.288;2023-04-15T03:32:53;2.50;;;1.52;;
74749;SDS011;63269;53.330;-6.288;2023-04-15T03:35:18;3.38;;;1.85;;
74749;SDS011;63269;53.330;-6.288;2023-04-15T03:37:44;3.38;;;1.70;;
74749;SDS011;63269;53.330;-6.288;2023-04-15T03:40:09;5.43;;;1.80;;
74749;SDS011;63269;53.330;-6.288;2023-04-15T03:42:35;4.20;;;2.00;;
74749;SDS011;63269;53.330;-6.288;2023-04-15T03:45:00;5.22;;;2.55;;
74749;SDS011;63269;53.330;-6.288;2023-04-15T03:47:26;3.13;;;1.33;;
74749;SDS011;63269;53.330;-6.288;2023-04-15T03:49:51;3.78;;;1.58;;
74749;SDS011;63269;53.330;-6.288;2023-04-15T03:52:17;4.32;;;1.58;;
74749;SDS011;63269;53.330;-6.288;2023-04-15T03:54:42;4.63;;;1.38;;
74749;SDS011;63269;53.330;-6.288;2023-04-15T03:57:07;3.65;;;1.55;;
74749;SDS011;63269;53.330;-6.288;2023-04-15T03:59:33;3.30;;;1.25;;
74749;SDS011;63269;53.330;-6.288;2023-04-15T04:01:58;2.60;;;1.20;;
74749;SDS011;63269;53.330;-6.288;2023-04-15T04:04:23;3.55;;;1.40;;
74749;SDS011;63269;53.330;-6.288;2023-04-15T04:06:49;4.13;;;1.65;;
74749;SDS011;63269;53.330;-6.288;2023-04-15T04:09:15;4.45;;;1.77;;
74749;SDS011;63269;53.330;-6.288;2023-04-15T04:11:40;3.42;;;1.60;;
74749;SDS011;63269;53.330;-6.288;2023-04-15T04:14:05;5.55;;;2.33;;
74749;SDS011;63269;53.330;-6.288;2023-04-15T04:16:31;3.92;;;1.52;;
74749;SDS011;63269;53.330;-6.288;2023-04-15T04:18:56;4.65;;;1.55;;
74749;SDS011;63269;53.330;-6.288;2023-04-15T04:21:21;4.05;;;1.73;;
74749;SDS011;63269;53.330;-6.288;2023-04-15T04:23:47;4.93;;;1.70;;
74749;SDS011;63269;53.330;-6.288;2023-04-15T04:26:12;4.35;;;1.65;;
74749;SDS011;63269;53.330;-6.288;2023-04-15T04:28:38;2.90;;;1.40;;
74749;SDS011;63269;53.330;-6.288;2023-04-15T04:31:06;3.83;;;1.90;;
74749;SDS011;63269;53.330;-6.288;2023-04-15T04:33:32;4.55;;;1.67;;
74749;SDS011;63269;53.330;-6.288;2023-04-15T04:35:57;4.55;;;1.77;;
74749;SDS011;63269;53.330;-6.288;2023-04-15T04:38:23;3.05;;;1.58;;
74749;SDS011;63269;53.330;-6.288;2023-04-15T04:40:48;4.47;;;1.60;;
74749;SDS011;63269;53.330;-6.288;2023-04-15T04:43:14;3.05;;;1.30;;
74749;SDS011;63269;53.330;-6.288;2023-04-15T04:45:40;3.80;;;1.48;;
74749;SDS011;63269;53.330;-6.288;2023-04-15T04:48:06;5.93;;;2.17;;
74749;SDS011;63269;53.330;-6.288;2023-04-15T04:50:33;4.70;;;1.52;;
74749;SDS011;63269;53.330;-6.288;2023-04-15T04:52:59;4.03;;;1.45;;
74749;SDS011;63269;53.330;-6.288;2023-04-15T04:55:25;4.60;;;1.33;;
74749;SDS011;63269;53.330;-6.288;2023-04-15T04:57:51;5.75;;;1.67;;
74749;SDS011;63269;53.330;-6.288;2023-04-15T05:00:16;3.42;;;1.50;;
74749;SDS011;63269;53.330;-6.288;2023-04-15T05:02:42;6.25;;;2.45;;
74749;SDS011;63269;53.330;-6.288;2023-04-15T05:05:08;3.90;;;2.08;;
74749;SDS011;63269;53.330;-6.288;2023-04-15T05:07:34;4.35;;;1.50;;
74749;SDS011;63269;53.330;-6.288;2023-04-15T05:09:59;4.47;;;1.92;;
74749;SDS011;63269;53.330;-6.288;2023-04-15T05:12:25;5.18;;;1.70;;
74749;SDS011;63269;53.330;-6.288;2023-04-15T05:14:50;3.25;;;1.70;;
74749;SDS011;63269;53.330;-6.288;2023-04-15T05:17:16;3.70;;;1.70;;
74749;SDS011;63269;53.330;-6.288;2023-04-15T05:19:41;3.95;;;1.42;;
74749;SDS011;63269;53.330;-6.288;2023-04-15T05:22:07;5.07;;;2.22;;
74749;SDS011;63269;53.330;-6.288;2023-04-15T05:24:32;3.47;;;1.95;;
74749;SDS011;63269;53.330;-6.288;2023-04-15T05:26:57;3.25;;;1.75;;
74749;SDS011;63269;53.330;-6.288;2023-04-15T05:29:23;5.93;;;2.03;;
74749;SDS011;63269;53.330;-6.288;2023-04-15T05:31:48;4.38;;;1.70;;
74749;SDS011;63269;53.330;-6.288;2023-04-15T05:34:13;4.40;;;1.80;;
74749;SDS011;63269;53.330;-6.288;2023-04-15T05:36:40;8.05;;;2.10;;
74749;SDS011;63269;53.330;-6.288;2023-04-15T05:39:06;3.83;;;1.67;;
74749;SDS011;63269;53.330;-6.288;2023-04-15T05:41:31;4.25;;;2.00;;
74749;SDS011;63269;53.330;-6.288;2023-04-15T05:43:57;4.35;;;1.98;;
74749;SDS011;63269;53.330;-6.288;2023-04-15T05:46:22;3.67;;;1.85;;
74749;SDS011;63269;53.330;-6.288;2023-04-15T05:48:48;3.88;;;1.85;;
74749;SDS011;63269;53.330;-6.288;2023-04-15T05:51:13;4.18;;;2.22;;
74749;SDS011;63269;53.330;-6.288;2023-04-15T05:53:38;6.95;;;2.10;;
74749;SDS011;63269;53.330;-6.288;2023-04-15T05:56:05;2.88;;;1.58;;
74749;SDS011;63269;53.330;-6.288;2023-04-15T05:58:31;3.20;;;1.58;;
74749;SDS011;63269;53.330;-6.288;2023-04-15T06:00:57;2.88;;;1.40;;
74749;SDS011;63269;53.330;-6.288;2023-04-15T06:03:22;4.55;;;1.75;;
74749;SDS011;63269;53.330;-6.288;2023-04-15T06:05:48;4.53;;;1.40;;
74749;SDS011;63269;53.330;-6.288;2023-04-15T06:08:13;5.28;;;1.80;;
74749;SDS011;63269;53.330;-6.288;2023-04-15T06:10:39;5.00;;;2.30;;
74749;SDS011;63269;53.330;-6.288;2023-04-15T06:13:04;3.92;;;1.90;;
74749;SDS011;63269;53.330;-6.288;2023-04-15T06:15:30;6.88;;;3.47;;
74749;SDS011;63269;53.330;-6.288;2023-04-15T06:17:56;4.53;;;1.92;;
74749;SDS011;63269;53.330;-6.288;2023-04-15T06:20:22;3.30;;;2.05;;
74749;SDS011;63269;53.330;-6.288;2023-04-15T06:22:48;6.10;;;1.98;;
74749;SDS011;63269;53.330;-6.288;2023-04-15T06:25:13;4.32;;;1.92;;
74749;SDS011;63269;53.330;-6.288;2023-04-15T06:27:39;4.45;;;1.92;;
74749;SDS011;63269;53.330;-6.288;2023-04-15T06:30:04;3.92;;;2.05;;
74749;SDS011;63269;53.330;-6.288;2023-04-15T06:32:31;5.30;;;1.55;;
74749;SDS011;63269;53.330;-6.288;2023-04-15T06:34:56;7.15;;;2.20;;
74749;SDS011;63269;53.330;-6.288;2023-04-15T06:37:22;5.53;;;1.98;;
74749;SDS011;63269;53.330;-6.288;2023-04-15T06:39:47;4.68;;;2.45;;
74749;SDS011;63269;53.330;-6.288;2023-04-15T06:42:12;3.17;;;1.63;;
74749;SDS011;63269;53.330;-6.288;2023-04-15T06:44:38;4.75;;;1.58;;
74749;SDS011;63269;53.330;-6.288;2023-04-15T06:47:05;5.50;;;2.35;;
74749;SDS011;63269;53.330;-6.288;2023-04-15T06:49:30;6.47;;;2.15;;
74749;SDS011;63269;53.330;-6.288;2023-04-15T06:51:56;2.63;;;1.52;;
74749;SDS011;63269;53.330;-6.288;2023-04-15T06:54:21;6.45;;;2.15;;
74749;SDS011;63269;53.330;-6.288;2023-04-15T06:56:47;5.28;;;1.65;;
74749;SDS011;63269;53.330;-6.288;2023-04-15T06:59:12;6.05;;;1.88;;
74749;SDS011;63269;53.330;-6.288;2023-04-15T07:01:39;7.03;;;2.65;;
74749;SDS011;63269;53.330;-6.288;2023-04-15T07:04:05;4.50;;;1.73;;
74749;SDS011;63269;53.330;-6.288;2023-04-15T07:06:30;4.93;;;1.92;;
74749;SDS011;63269;53.330;-6.288;2023-04-15T07:08:56;5.00;;;1.85;;
74749;SDS011;63269;53.330;-6.288;2023-04-15T07:11:22;7.70;;;2.00;;
74749;SDS011;63269;53.330;-6.288;2023-04-15T07:13:47;8.05;;;2.70;;
74749;SDS011;63269;53.330;-6.288;2023-04-15T07:16:13;4.47;;;2.10;;
74749;SDS011;63269;53.330;-6.288;2023-04-15T07:18:38;4.35;;;1.83;;
74749;SDS011;63269;53.330;-6.288;2023-04-15T07:21:04;5.40;;;2.78;;
74749;SDS011;63269;53.330;-6.288;2023-04-15T07:23:29;3.67;;;2.00;;
74749;SDS011;63269;53.330;-6.288;2023-04-15T07:25:55;3.88;;;1.52;;
74749;SDS011;63269;53.330;-6.288;2023-04-15T07:28:21;4.40;;;1.67;;
74749;SDS011;63269;53.330;-6.288;2023-04-15T07:30:47;3.40;;;1.42;;
74749;SDS011;63269;53.330;-6.288;2023-04-15T07:33:13;4.13;;;2.00;;
74749;SDS011;63269;53.330;-6.288;2023-04-15T07:35:38;4.18;;;1.70;;
74749;SDS011;63269;53.330;-6.288;2023-04-15T07:38:03;4.10;;;1.85;;
74749;SDS011;63269;53.330;-6.288;2023-04-15T07:40:29;5.15;;;1.88;;
74749;SDS011;63269;53.330;-6.288;2023-04-15T07:42:55;4.78;;;1.60;;
74749;SDS011;63269;53.330;-6.288;2023-04-15T07:45:22;3.72;;;1.95;;
74749;SDS011;63269;53.330;-6.288;2023-04-15T07:47:47;3.72;;;1.63;;
74749;SDS011;63269;53.330;-6.288;2023-04-15T07:50:14;4.45;;;1.95;;
74749;SDS011;63269;53.330;-6.288;2023-04-15T07:52:41;3.40;;;1.45;;
74749;SDS011;63269;53.330;-6.288;2023-04-15T07:55:07;5.30;;;1.75;;
74749;SDS011;63269;53.330;-6.288;2023-04-15T07:57:33;3.28;;;1.23;;
74749;SDS011;63269;53.330;-6.288;2023-04-15T07:59:59;3.70;;;1.45;;
74749;SDS011;63269;53.330;-6.288;2023-04-15T08:02:25;4.18;;;1.50;;
74749;SDS011;63269;53.330;-6.288;2023-04-15T08:04:50;5.75;;;1.77;;
74749;SDS011;63269;53.330;-6.288;2023-04-15T08:07:17;5.13;;;1.42;;
74749;SDS011;63269;53.330;-6.288;2023-04-15T08:09:42;4.55;;;1.70;;
74749;SDS011;63269;53.330;-6.288;2023-04-15T08:12:08;3.35;;;1.48;;
74749;SDS011;63269;53.330;-6.288;2023-04-15T08:14:36;3.13;;;1.20;;
74749;SDS011;63269;53.330;-6.288;2023-04-15T08:17:02;4.35;;;1.65;;
74749;SDS011;63269;53.330;-6.288;2023-04-15T08:19:28;4.22;;;1.25;;
74749;SDS011;63269;53.330;-6.288;2023-04-15T08:21:54;4.97;;;1.52;;
74749;SDS011;63269;53.330;-6.288;2023-04-15T08:24:20;4.55;;;1.42;;
74749;SDS011;63269;53.330;-6.288;2023-04-15T08:26:45;5.35;;;1.50;;
74749;SDS011;63269;53.330;-6.288;2023-04-15T08:29:11;3.80;;;1.48;;
74749;SDS011;63269;53.330;-6.288;2023-04-15T08:31:36;3.05;;;1.30;;
74749;SDS011;63269;53.330;-6.288;2023-04-15T08:34:02;2.03;;;1.50;;
74749;SDS011;63269;53.330;-6.288;2023-04-15T08:36:28;3.42;;;1.42;;
74749;SDS011;63269;53.330;-6.288;2023-04-15T08:38:53;2.83;;;1.40;;
74749;SDS011;63269;53.330;-6.288;2023-04-15T08:44:06;2.55;;;1.00;;
74749;SDS011;63269;53.330;-6.288;2023-04-15T08:46:31;3.22;;;1.20;;
74749;SDS011;63269;53.330;-6.288;2023-04-15T08:49:02;3.30;;;1.48;;
74749;SDS011;63269;53.330;-6.288;2023-04-15T08:51:29;3.05;;;1.45;;
74749;SDS011;63269;53.330;-6.288;2023-04-15T08:53:54;2.90;;;1.05;;
74749;SDS011;63269;53.330;-6.288;2023-04-15T08:56:23;2.10;;;1.15;;
74749;SDS011;63269;53.330;-6.288;2023-04-15T08:58:50;2.15;;;1.05;;
74749;SDS011;63269;53.330;-6.288;2023-04-15T09:01:16;3.88;;;1.60;;
74749;SDS011;63269;53.330;-6.288;2023-04-15T09:03:42;2.08;;;1.02;;
74749;SDS011;63269;53.330;-6.288;2023-04-15T09:06:08;2.00;;;0.90;;
74749;SDS011;63269;53.330;-6.288;2023-04-15T09:08:33;2.47;;;1.27;;
74749;SDS011;63269;53.330;-6.288;2023-04-15T09:11:00;2.95;;;1.55;;
74749;SDS011;63269;53.330;-6.288;2023-04-15T09:13:27;3.05;;;0.90;;
74749;SDS011;63269;53.330;-6.288;2023-04-15T09:15:52;2.00;;;0.90;;
74749;SDS011;63269;53.330;-6.288;2023-04-15T09:18:32;1.92;;;0.90;;
74749;SDS011;63269;53.330;-6.288;2023-04-15T09:21:09;2.38;;;1.05;;
74749;SDS011;63269;53.330;-6.288;2023-04-15T09:23:37;3.40;;;1.08;;
74749;SDS011;63269;53.330;-6.288;2023-04-15T09:26:05;2.45;;;1.13;;
74749;SDS011;63269;53.330;-6.288;2023-04-15T09:28:31;3.05;;;1.60;;
74749;SDS011;63269;53.330;-6.288;2023-04-15T09:30:57;2.13;;;0.70;;
74749;SDS011;63269;53.330;-6.288;2023-04-15T09:33:26;2.05;;;0.80;;
74749;SDS011;63269;53.330;-6.288;2023-04-15T09:36:00;1.52;;;0.70;;
74749;SDS011;63269;53.330;-6.288;2023-04-15T09:38:26;1.73;;;1.05;;
74749;SDS011;63269;53.330;-6.288;2023-04-15T09:40:52;2.03;;;0.95;;
74749;SDS011;63269;53.330;-6.288;2023-04-15T09:43:17;2.92;;;0.90;;
74749;SDS011;63269;53.330;-6.288;2023-04-15T09:45:50;1.67;;;0.80;;
74749;SDS011;63269;53.330;-6.288;2023-04-15T09:50:51;3.35;;;1.20;;
74749;SDS011;63269;53.330;-6.288;2023-04-15T09:53:22;1.52;;;0.88;;
74749;SDS011;63269;53.330;-6.288;2023-04-15T09:55:55;1.92;;;0.80;;
74749;SDS011;63269;53.330;-6.288;2023-04-15T09:58:23;1.85;;;0.50;;
74749;SDS011;63269;53.330;-6.288;2023-04-15T10:00:50;1.95;;;0.60;;
74749;SDS011;63269;53.330;-6.288;2023-04-15T10:03:20;2.55;;;1.10;;
74749;SDS011;63269;53.330;-6.288;2023-04-15T10:05:47;2.95;;;0.90;;
74749;SDS011;63269;53.330;-6.288;2023-04-15T10:08:25;3.78;;;1.23;;
74749;SDS011;63269;53.330;-6.288;2023-04-15T10:10:53;3.00;;;0.60;;
74749;SDS011;63269;53.330;-6.288;2023-04-15T10:13:22;1.23;;;0.60;;
74749;SDS011;63269;53.330;-6.288;2023-04-15T10:15:50;2.97;;;0.70;;
74749;SDS011;63269;53.330;-6.288;2023-04-15T10:18:16;2.00;;;0.60;;
74749;SDS011;63269;53.330;-6.288;2023-04-15T10:20:43;1.55;;;0.77;;
74749;SDS011;63269;53.330;-6.288;2023-04-15T10:23:10;1.30;;;0.68;;
74749;SDS011;63269;53.330;-6.288;2023-04-15T10:25:36;3.50;;;0.50;;
74749;SDS011;63269;53.330;-6.288;2023-04-15T10:28:02;2.15;;;0.75;;
74749;SDS011;63269;53.330;-6.288;2023-04-15T10:30:30;1.40;;;0.60;;
74749;SDS011;63269;53.330;-6.288;2023-04-15T10:32:57;2.85;;;0.45;;
74749;SDS011;63269;53.330;-6.288;2023-04-15T10:35:22;2.47;;;0.80;;
74749;SDS011;63269;53.330;-6.288;2023-04-15T10:37:48;0.85;;;0.30;;
74749;SDS011;63269;53.330;-6.288;2023-04-15T10:42:51;3.72;;;0.90;;
74749;SDS011;63269;53.330;-6.288;2023-04-15T10:45:18;0.98;;;0.40;;
74749;SDS011;63269;53.330;-6.288;2023-04-15T10:47:43;0.93;;;0.43;;
74749;SDS011;63269;53.330;-6.288;2023-04-15T10:50:09;2.20;;;0.70;;
74749;SDS011;63269;53.330;-6.288;2023-04-15T10:52:36;2.33;;;0.57;;
74749;SDS011;63269;53.330;-6.288;2023-04-15T10:55:15;1.40;;;0.50;;
74749;SDS011;63269;53.330;-6.288;2023-04-15T10:57:44;2.27;;;0.67;;
74749;SDS011;63269;53.330;-6.288;2023-04-15T11:00:16;3.17;;;0.60;;
74749;SDS011;63269;53.330;-6.288;2023-04-15T11:05:11;0.95;;;0.50;;
74749;SDS011;63269;53.330;-6.288;2023-04-15T11:10:48;2.15;;;0.57;;
74749;SDS011;63269;53.330;-6.288;2023-04-15T11:12:58;4.55;;;0.70;;
74749;SDS011;63269;53.330;-6.288;2023-04-15T11:15:38;1.23;;;0.60;;
74749;SDS011;63269;53.330;-6.288;2023-04-15T11:18:14;1.52;;;0.63;;
74749;SDS011;63269;53.330;-6.288;2023-04-15T11:20:43;1.60;;;0.60;;
74749;SDS011;63269;53.330;-6.288;2023-04-15T11:23:12;1.30;;;0.70;;
74749;SDS011;63269;53.330;-6.288;2023-04-15T11:25:38;2.72;;;0.70;;
74749;SDS011;63269;53.330;-6.288;2023-04-15T11:28:04;2.15;;;0.70;;
74749;SDS011;63269;53.330;-6.288;2023-04-15T11:30:34;1.17;;;0.63;;
74749;SDS011;63269;53.330;-6.288;2023-04-15T11:33:05;1.65;;;0.50;;
74749;SDS011;63269;53.330;-6.288;2023-04-15T11:35:33;1.08;;;0.40;;
74749;SDS011;63269;53.330;-6.288;2023-04-15T11:38:02;1.13;;;0.52;;
74749;SDS011;63269;53.330;-6.288;2023-04-15T11:40:29;1.25;;;0.35;;
74749;SDS011;63269;53.330;-6.288;2023-04-15T11:48:13;2.53;;;0.40;;
74749;SDS011;63269;53.330;-6.288;2023-04-15T11:50:39;1.30;;;0.40;;
74749;SDS011;63269;53.330;-6.288;2023-04-15T11:53:06;1.73;;;0.93;;
74749;SDS011;63269;53.330;-6.288;2023-04-15T12:00:37;1.20;;;0.50;;
74749;SDS011;63269;53.330;-6.288;2023-04-15T12:03:14;2.45;;;0.50;;
74749;SDS011;63269;53.330;-6.288;2023-04-15T12:11:44;1.02;;;0.50;;
74749;SDS011;63269;53.330;-6.288;2023-04-15T12:16:53;1.98;;;0.55;;
74749;SDS011;63269;53.330;-6.288;2023-04-15T12:19:28;0.70;;;0.40;;
74749;SDS011;63269;53.330;-6.288;2023-04-15T12:21:57;1.92;;;0.70;;
74749;SDS011;63269;53.330;-6.288;2023-04-15T12:24:24;3.15;;;1.30;;
74749;SDS011;63269;53.330;-6.288;2023-04-15T12:26:51;1.95;;;0.70;;
74749;SDS011;63269;53.330;-6.288;2023-04-15T12:29:25;6.97;;;0.77;;
74749;SDS011;63269;53.330;-6.288;2023-04-15T12:31:53;7.82;;;2.08;;
74749;SDS011;63269;53.330;-6.288;2023-04-15T12:34:29;5.93;;;1.30;;
74749;SDS011;63269;53.330;-6.288;2023-04-15T12:36:57;7.13;;;2.35;;
74749;SDS011;63269;53.330;-6.288;2023-04-15T12:39:24;13.93;;;6.80;;
74749;SDS011;63269;53.330;-6.288;2023-04-15T12:41:50;16.17;;;5.95;;
74749;SDS011;63269;53.330;-6.288;2023-04-15T12:44:16;10.80;;;5.03;;
74749;SDS011;63269;53.330;-6.288;2023-04-15T12:46:42;13.23;;;7.18;;
74749;SDS011;63269;53.330;-6.288;2023-04-15T12:49:08;11.30;;;5.38;;
74749;SDS011;63269;53.330;-6.288;2023-04-15T12:51:33;15.00;;;6.13;;
74749;SDS011;63269;53.330;-6.288;2023-04-15T12:53:59;13.13;;;5.93;;
74749;SDS011;63269;53.330;-6.288;2023-04-15T12:56:24;15.57;;;5.57;;
74749;SDS011;63269;53.330;-6.288;2023-04-15T12:58:50;17.67;;;6.05;;
74749;SDS011;63269;53.330;-6.288;2023-04-15T13:01:16;17.17;;;5.25;;
74749;SDS011;63269;53.330;-6.288;2023-04-15T13:03:42;15.38;;;4.95;;
74749;SDS011;63269;53.330;-6.288;2023-04-15T13:06:08;8.95;;;3.67;;
74749;SDS011;63269;53.330;-6.288;2023-04-15T13:08:33;9.30;;;3.13;;
74749;SDS011;63269;53.330;-6.288;2023-04-15T13:10:58;8.77;;;3.22;;
74749;SDS011;63269;53.330;-6.288;2023-04-15T13:13:24;14.05;;;3.35;;
74749;SDS011;63269;53.330;-6.288;2023-04-15T13:15:50;14.05;;;3.03;;
74749;SDS011;63269;53.330;-6.288;2023-04-15T13:18:15;9.75;;;2.53;;
74749;SDS011;63269;53.330;-6.288;2023-04-15T13:20:40;10.20;;;2.20;;
74749;SDS011;63269;53.330;-6.288;2023-04-15T13:23:06;7.57;;;2.60;;
74749;SDS011;63269;53.330;-6.288;2023-04-15T13:25:31;8.82;;;2.20;;
74749;SDS011;63269;53.330;-6.288;2023-04-15T13:27:57;4.00;;;1.90;;
74749;SDS011;63269;53.330;-6.288;2023-04-15T13:30:22;5.57;;;1.77;;
74749;SDS011;63269;53.330;-6.288;2023-04-15T13:32:48;7.40;;;2.15;;
74749;SDS011;63269;53.330;-6.288;2023-04-15T13:35:14;6.80;;;1.83;;
74749;SDS011;63269;53.330;-6.288;2023-04-15T13:37:39;5.63;;;2.17;;
74749;SDS011;63269;53.330;-6.288;2023-04-15T13:40:05;3.13;;;1.58;;
74749;SDS011;63269;53.330;-6.288;2023-04-15T13:42:31;3.25;;;1.05;;
74749;SDS011;63269;53.330;-6.288;2023-04-15T13:44:57;5.97;;;0.93;;
74749;SDS011;63269;53.330;-6.288;2023-04-15T13:47:22;4.25;;;1.40;;
74749;SDS011;63269;53.330;-6.288;2023-04-15T13:49:48;3.03;;;1.00;;
74749;SDS011;63269;53.330;-6.288;2023-04-15T13:52:13;2.80;;;1.00;;
74749;SDS011;63269;53.330;-6.288;2023-04-15T13:54:39;1.77;;;0.70;;
74749;SDS011;63269;53.330;-6.288;2023-04-15T13:57:04;2.53;;;0.63;;
74749;SDS011;63269;53.330;-6.288;2023-04-15T13:59:30;8.95;;;1.55;;
74749;SDS011;63269;53.330;-6.288;2023-04-15T14:01:56;2.80;;;0.68;;
74749;SDS011;63269;53.330;-6.288;2023-04-15T14:04:22;2.90;;;0.80;;
74749;SDS011;63269;53.330;-6.288;2023-04-15T14:06:47;3.63;;;0.80;;
74749;SDS011;63269;53.330;-6.288;2023-04-15T14:09:13;2.70;;;0.88;;
74749;SDS011;63269;53.330;-6.288;2023-04-15T14:11:39;17.67;;;1.63;;
74749;SDS011;63269;53.330;-6.288;2023-04-15T14:14:04;7.78;;;1.15;;
74749;SDS011;63269;53.330;-6.288;2023-04-15T14:16:33;7.53;;;1.20;;
74749;SDS011;63269;53.330;-6.288;2023-04-15T14:18:59;8.65;;;2.03;;
74749;SDS011;63269;53.330;-6.288;2023-04-15T14:21:25;6.10;;;1.10;;
74749;SDS011;63269;53.330;-6.288;2023-04-15T14:23:52;8.88;;;0.88;;
74749;SDS011;63269;53.330;-6.288;2023-04-15T14:26:17;24.33;;;1.67;;
74749;SDS011;63269;53.330;-6.288;2023-04-15T14:28:43;18.52;;;1.83;;
74749;SDS011;63269;53.330;-6.288;2023-04-15T14:31:09;9.57;;;1.27;;
74749;SDS011;63269;53.330;-6.288;2023-04-15T14:33:34;9.93;;;1.05;;
74749;SDS011;63269;53.330;-6.288;2023-04-15T14:36:00;4.40;;;1.10;;
74749;SDS011;63269;53.330;-6.288;2023-04-15T14:38:25;7.60;;;1.20;;
74749;SDS011;63269;53.330;-6.288;2023-04-15T14:40:50;12.05;;;1.40;;
74749;SDS011;63269;53.330;-6.288;2023-04-15T14:43:16;7.82;;;0.82;;
74749;SDS011;63269;53.330;-6.288;2023-04-15T14:45:41;3.42;;;0.95;;
74749;SDS011;63269;53.330;-6.288;2023-04-15T14:48:07;5.78;;;1.08;;
74749;SDS011;63269;53.330;-6.288;2023-04-15T14:50:34;5.15;;;0.90;;
74749;SDS011;63269;53.330;-6.288;2023-04-15T14:53:00;3.70;;;0.73;;
74749;SDS011;63269;53.330;-6.288;2023-04-15T14:55:25;3.28;;;0.70;;
74749;SDS011;63269;53.330;-6.288;2023-04-15T14:57:51;5.03;;;0.80;;
74749;SDS011;63269;53.330;-6.288;2023-04-15T15:00:16;5.47;;;1.35;;